EWG3443 EPKK-LKPR
Flight info
| Callsign | EWG3443 |
|---|---|
| Flight time | N/A |
| Altitude | 32000 |
| Route | TUSIN DCT LABUK DCT TUMKA DCT VLM VLM6R/30 |
| Aircraft | A319/M-SDE3FGHIRWY/LB1 |
Departure
| Time | N/A |
|---|---|
| Airport | Kraków John Paul II International Airport (EPKK) |
Arrival
| Time | 2026-04-30 18:06 |
|---|---|
| Airport | Václav Havel Airport Prague (LKPR) |
| Time | Latitude | Longitude | Altitude | Speed | Heading |
|---|---|---|---|---|---|
| 2026-04-30 17:39 | 49.82176 | 14.83147 | 10847 ft | 307 kts | 311° |
| 2026-04-30 17:41 | 49.91905 | 14.63359 | 8459 ft | 257 kts | 311° |
| 2026-04-30 17:42 | 49.94118 | 14.58857 | 7269 ft | 272 kts | 310° |
| 2026-04-30 17:42 | 49.97433 | 14.52069 | 6127 ft | 264 kts | 310° |
| 2026-04-30 17:43 | 49.99686 | 14.47461 | 4842 ft | 262 kts | 310° |
| 2026-04-30 17:44 | 50.02653 | 14.41342 | 3786 ft | 212 kts | 310° |
| 2026-04-30 17:44 | 50.05125 | 14.36238 | 2898 ft | 173 kts | 309° |
| 2026-04-30 17:46 | 50.08232 | 14.29865 | 1531 ft | 134 kts | 306° |
| 2026-04-30 17:47 | 50.10284 | 14.25458 | 1633 ft | 136 kts | 307° |
| 2026-04-30 17:48 | 50.12873 | 14.19717 | 3013 ft | 201 kts | 309° |
| 2026-04-30 17:48 | 50.15365 | 14.14261 | 3009 ft | 207 kts | 308° |
| 2026-04-30 17:49 | 50.17285 | 14.05767 | 3201 ft | 231 kts | 242° |
| 2026-04-30 17:50 | 50.12187 | 14.06043 | 4018 ft | 217 kts | 118° |
| 2026-04-30 17:51 | 50.10451 | 14.12413 | 4011 ft | 212 kts | 96° |
| 2026-04-30 17:52 | 50.09821 | 14.19230 | 4006 ft | 213 kts | 95° |
| 2026-04-30 17:53 | 50.08804 | 14.30664 | 4011 ft | 213 kts | 95° |
| 2026-04-30 17:54 | 50.07994 | 14.39804 | 4010 ft | 213 kts | 95° |
| 2026-04-30 17:55 | 50.07177 | 14.48965 | 4005 ft | 214 kts | 95° |
| 2026-04-30 17:56 | 50.06418 | 14.57443 | 4013 ft | 215 kts | 95° |
| 2026-04-30 17:57 | 50.04335 | 14.63324 | 4018 ft | 224 kts | 144° |
| 2026-04-30 17:58 | 50.00344 | 14.67224 | 4014 ft | 224 kts | 145° |
| 2026-04-30 17:59 | 49.95273 | 14.65410 | 4013 ft | 228 kts | 260° |
| 2026-04-30 18:00 | 49.95707 | 14.55760 | 4007 ft | 221 kts | 299° |
| 2026-04-30 18:00 | 49.98163 | 14.50550 | 4013 ft | 177 kts | 310° |
| 2026-04-30 18:01 | 49.99604 | 14.47601 | 4008 ft | 168 kts | 311° |
| 2026-04-30 18:02 | 50.01701 | 14.43297 | 3694 ft | 159 kts | 311° |
| 2026-04-30 18:02 | 50.03585 | 14.39424 | 3007 ft | 141 kts | 311° |
| 2026-04-30 18:03 | 50.05324 | 14.35846 | 2620 ft | 138 kts | 311° |
| 2026-04-30 18:04 | 50.07057 | 14.32275 | 1970 ft | 135 kts | 311° |
| 2026-04-30 18:05 | 50.09263 | 14.27715 | 1248 ft | 124 kts | 312° |
| 2026-04-30 18:06 | 50.10389 | 14.25397 | 1178 ft | 19 kts | 308° |
| 2026-04-30 18:07 | 50.10459 | 14.25511 | 1179 ft | 9 kts | 79° |
| 2026-04-30 18:08 | 50.10465 | 14.25555 | 1181 ft | 0 kts | 79° |
| 2026-04-30 18:10 | 50.10488 | 14.25748 | 1183 ft | 8 kts | 79° |
| 2026-04-30 18:11 | 50.10508 | 14.25901 | 1186 ft | 3 kts | 79° |
| 2026-04-30 18:11 | 50.10531 | 14.26091 | 1188 ft | 2 kts | 86° |
| 2026-04-30 18:12 | 50.10534 | 14.26119 | 1188 ft | 0 kts | 78° |
| 2026-04-30 18:13 | 50.10537 | 14.26138 | 1188 ft | 4 kts | 75° |
| 2026-04-30 18:13 | 50.10506 | 14.26310 | 1187 ft | 8 kts | 131° |
| 2026-04-30 18:14 | 50.10450 | 14.26440 | 1190 ft | 5 kts | 121° |